createdAt,value
2022-09-28T00:00:00.385Z,11.10
2022-09-28T00:00:59.741Z,10.30
2022-09-28T00:01:59.818Z,9.70
2022-09-28T00:03:00.038Z,10.80
2022-09-28T00:04:00.000Z,9.40
2022-09-28T00:05:00.386Z,10.30
2022-09-28T00:06:00.188Z,8.30
2022-09-28T00:07:00.335Z,11.90
2022-09-28T00:07:59.845Z,10.00
2022-09-28T00:08:59.784Z,9.80
2022-09-28T00:09:59.644Z,9.70
2022-09-28T00:11:00.190Z,10.10
2022-09-28T00:12:00.426Z,9.60
2022-09-28T00:13:00.448Z,10.80
2022-09-28T00:13:59.823Z,10.30
2022-09-28T00:14:59.670Z,11.30
2022-09-28T00:15:59.661Z,9.40
2022-09-28T00:16:59.653Z,9.90
2022-09-28T00:17:59.654Z,8.90
2022-09-28T00:18:59.672Z,7.50
2022-09-28T00:19:59.671Z,10.20
2022-09-28T00:21:00.094Z,9.20
2022-09-28T00:21:59.572Z,9.10
2022-09-28T00:22:59.552Z,10.30
2022-09-28T00:23:59.540Z,11.70
2022-09-28T00:24:59.549Z,8.40
2022-09-28T00:25:59.541Z,8.00
2022-09-28T00:26:59.731Z,10.40
2022-09-28T00:27:59.520Z,8.50
2022-09-28T00:28:59.522Z,8.80
2022-09-28T00:29:59.760Z,8.50
2022-09-28T00:30:59.789Z,8.80
2022-09-28T00:32:00.230Z,8.00
2022-09-28T00:32:59.819Z,7.40
2022-09-28T00:34:00.042Z,8.10
2022-09-28T00:34:59.500Z,7.10
2022-09-28T00:35:59.805Z,9.50
2022-09-28T00:36:59.621Z,10.20
2022-09-28T00:37:59.718Z,8.50
2022-09-28T00:38:59.635Z,8.90
2022-09-28T00:39:59.589Z,7.70
2022-09-28T00:40:59.519Z,9.00
2022-09-28T00:41:59.819Z,7.80
2022-09-28T00:43:00.539Z,9.20
2022-09-28T00:43:59.437Z,7.10
2022-09-28T00:44:59.480Z,7.60
2022-09-28T00:46:00.338Z,8.40
2022-09-28T00:46:59.649Z,6.70
2022-09-28T00:47:59.656Z,7.40
2022-09-28T00:48:59.866Z,5.90
2022-09-28T00:49:59.462Z,7.40
2022-09-28T00:50:59.885Z,6.70
2022-09-28T00:51:59.535Z,9.90
2022-09-28T00:52:59.475Z,5.70
2022-09-28T00:54:00.094Z,7.80
2022-09-28T00:55:00.216Z,7.90
2022-09-28T00:56:00.378Z,7.10
2022-09-28T00:56:59.917Z,7.20
2022-09-28T00:57:59.322Z,7.90
2022-09-28T00:58:59.333Z,7.90
2022-09-28T00:59:59.314Z,5.90
2022-09-28T01:00:59.469Z,7.30
2022-09-28T01:01:59.518Z,6.90
2022-09-28T01:02:59.625Z,7.30
2022-09-28T01:03:59.563Z,7.90
2022-09-28T01:04:59.564Z,8.80
2022-09-28T01:05:59.592Z,7.40
2022-09-28T01:06:59.591Z,7.00
2022-09-28T01:07:59.800Z,6.50
2022-09-28T01:08:59.811Z,6.90
2022-09-28T01:09:59.812Z,7.60
2022-09-28T01:10:59.832Z,7.80
2022-09-28T01:11:59.409Z,9.10
2022-09-28T01:13:00.027Z,8.60
2022-09-28T01:13:59.221Z,7.30
2022-09-28T01:15:00.058Z,9.30
2022-09-28T01:16:00.129Z,7.40
2022-09-28T01:16:59.248Z,8.90
2022-09-28T01:17:59.255Z,8.10
2022-09-28T01:18:59.261Z,12.10
2022-09-28T01:19:59.470Z,9.80
2022-09-28T01:20:59.263Z,11.00
2022-09-28T01:21:59.280Z,11.10
2022-09-28T01:22:59.288Z,9.30
2022-09-28T01:23:59.147Z,11.80
2022-09-28T01:24:59.311Z,8.30
2022-09-28T01:25:59.312Z,9.40
2022-09-28T01:26:59.314Z,8.00
2022-09-28T01:27:59.322Z,10.20
2022-09-28T01:28:59.317Z,9.80
2022-09-28T01:29:59.318Z,9.20
2022-09-28T01:30:59.348Z,9.30
2022-09-28T01:31:59.247Z,9.30
2022-09-28T01:32:59.159Z,9.20
2022-09-28T01:33:59.356Z,8.60
2022-09-28T01:34:59.117Z,9.30
2022-09-28T01:35:59.165Z,10.20
2022-09-28T01:36:59.175Z,9.00
2022-09-28T01:37:59.055Z,10.20
2022-09-28T01:38:59.188Z,8.90
2022-09-28T01:39:59.185Z,9.80
2022-09-28T01:40:59.103Z,10.40
2022-09-28T01:41:59.434Z,10.60
2022-09-28T01:42:59.422Z,7.80
2022-09-28T01:43:59.434Z,9.60
2022-09-28T01:44:59.442Z,9.90
2022-09-28T01:45:59.594Z,7.30
2022-09-28T01:46:59.234Z,8.10
2022-09-28T01:47:59.443Z,8.30
2022-09-28T01:48:59.465Z,8.70
2022-09-28T01:49:59.251Z,10.10
2022-09-28T01:50:59.493Z,8.80
2022-09-28T01:51:59.082Z,9.00
2022-09-28T01:52:59.711Z,8.40
2022-09-28T01:53:59.702Z,7.70
2022-09-28T01:54:59.703Z,7.60
2022-09-28T01:55:59.542Z,8.90
2022-09-28T01:56:59.130Z,8.60
2022-09-28T01:57:58.941Z,9.50
2022-09-28T01:58:59.311Z,7.80
2022-09-28T01:59:58.911Z,8.40
2022-09-28T02:00:59.764Z,8.20
2022-09-28T02:01:59.780Z,7.80
2022-09-28T02:02:59.130Z,8.20
2022-09-28T02:03:58.990Z,10.20
2022-09-28T02:04:58.948Z,8.90
2022-09-28T02:05:59.140Z,11.30
2022-09-28T02:06:59.443Z,9.20
2022-09-28T02:07:59.786Z,9.20
2022-09-28T02:08:59.768Z,10.80
2022-09-28T02:09:59.169Z,11.30
2022-09-28T02:10:59.487Z,8.80
2022-09-28T02:11:58.999Z,10.20
2022-09-28T02:12:58.848Z,10.00
2022-09-28T02:13:58.818Z,12.10
2022-09-28T02:14:59.025Z,12.90
2022-09-28T02:15:59.118Z,11.20
2022-09-28T02:16:59.047Z,11.60
2022-09-28T02:17:59.073Z,12.10
2022-09-28T02:18:59.028Z,12.40
2022-09-28T02:19:59.335Z,14.10
2022-09-28T02:20:58.870Z,13.50
2022-09-28T02:21:58.843Z,13.10
2022-09-28T02:22:59.328Z,14.00
2022-09-28T02:23:59.268Z,14.70
2022-09-28T02:24:58.865Z,15.10
2022-09-28T02:25:59.288Z,15.50
2022-09-28T02:26:59.285Z,14.50
2022-09-28T02:27:59.607Z,16.70
2022-09-28T02:28:58.727Z,17.90
2022-09-28T02:29:58.704Z,18.30
2022-09-28T02:30:58.713Z,14.50
2022-09-28T02:31:58.723Z,18.30
2022-09-28T02:32:58.743Z,19.80
2022-09-28T02:33:58.717Z,17.30
2022-09-28T02:34:58.766Z,19.30
2022-09-28T02:35:58.724Z,19.40
2022-09-28T02:36:58.675Z,18.90
2022-09-28T02:37:58.801Z,19.00
2022-09-28T02:38:58.820Z,19.60
2022-09-28T02:39:58.822Z,19.10
2022-09-28T02:40:58.880Z,21.60
2022-09-28T02:41:58.632Z,21.10
2022-09-28T02:42:58.642Z,22.20
2022-09-28T02:43:58.787Z,21.90
2022-09-28T02:44:58.890Z,21.90
2022-09-28T02:45:58.645Z,21.60
2022-09-28T02:46:58.620Z,22.30
2022-09-28T02:47:58.934Z,23.70
2022-09-28T02:49:17.421Z,26.20
2022-09-28T02:49:58.630Z,25.40
2022-09-28T02:50:58.650Z,27.20
2022-09-28T02:51:58.659Z,28.00
2022-09-28T02:52:58.650Z,27.00
2022-09-28T02:53:58.640Z,23.80
2022-09-28T02:54:58.619Z,27.10
2022-09-28T02:55:58.675Z,26.70
2022-09-28T02:56:58.668Z,25.40
2022-09-28T02:57:58.571Z,26.90
2022-09-28T02:58:58.599Z,27.60
2022-09-28T02:59:58.517Z,27.90
2022-09-28T03:00:58.598Z,29.20
2022-09-28T03:01:58.754Z,33.10
2022-09-28T03:02:58.907Z,32.40
2022-09-28T03:03:58.514Z,28.90
2022-09-28T03:04:58.707Z,28.60
2022-09-28T03:05:58.927Z,29.40
2022-09-28T03:06:58.566Z,28.40
2022-09-28T03:07:58.536Z,27.00
2022-09-28T03:08:58.544Z,25.30
2022-09-28T03:09:58.547Z,30.60
2022-09-28T03:10:58.556Z,27.50
2022-09-28T03:11:58.587Z,29.50
2022-09-28T03:12:58.559Z,24.30
2022-09-28T03:13:58.775Z,26.20
2022-09-28T03:14:58.596Z,27.10
2022-09-28T03:15:58.845Z,27.90
2022-09-28T03:16:59.014Z,30.80
2022-09-28T03:17:58.393Z,30.00
2022-09-28T03:18:58.404Z,28.00
2022-09-28T03:19:58.413Z,31.60
2022-09-28T03:20:58.417Z,28.70
2022-09-28T03:21:58.422Z,34.40
2022-09-28T03:23:23.375Z,29.10
2022-09-28T03:23:58.415Z,32.90
2022-09-28T03:24:58.365Z,31.70
2022-09-28T03:25:58.452Z,31.80
2022-09-28T03:26:58.338Z,29.90
2022-09-28T03:27:58.474Z,30.30
2022-09-28T03:28:58.351Z,30.60
2022-09-28T03:29:58.526Z,29.20
2022-09-28T03:30:58.330Z,28.90
2022-09-28T03:31:58.581Z,29.10
2022-09-28T03:32:58.298Z,28.10
2022-09-28T03:33:58.490Z,28.10
2022-09-28T03:34:58.509Z,29.10
2022-09-28T03:35:58.510Z,29.10
2022-09-28T03:36:58.511Z,30.80
2022-09-28T03:37:58.549Z,29.60
2022-09-28T03:38:58.533Z,32.20
2022-09-28T03:39:58.539Z,32.80
2022-09-28T03:40:58.586Z,33.90
2022-09-28T03:41:58.269Z,33.20
2022-09-28T03:42:58.566Z,33.60
2022-09-28T03:43:58.568Z,33.50
2022-09-28T03:44:58.568Z,35.30
2022-09-28T03:45:58.622Z,33.50
2022-09-28T03:46:58.307Z,34.90
2022-09-28T03:47:58.376Z,33.90
2022-09-28T03:48:58.388Z,37.10
2022-09-28T03:49:58.634Z,33.10
2022-09-28T03:50:58.637Z,39.40
2022-09-28T03:51:58.646Z,35.00
2022-09-28T03:52:58.218Z,34.90
2022-09-28T03:53:58.227Z,38.90
2022-09-28T03:54:58.156Z,37.80
2022-09-28T03:55:58.246Z,35.80
2022-09-28T03:56:58.194Z,38.40
2022-09-28T03:57:58.254Z,38.90
2022-09-28T03:58:58.274Z,43.00
2022-09-28T03:59:58.117Z,42.20
2022-09-28T04:00:58.154Z,37.20
2022-09-28T04:01:58.141Z,39.10
2022-09-28T04:02:58.097Z,36.70
2022-09-28T04:03:58.091Z,39.80
2022-09-28T04:04:58.083Z,41.80
2022-09-28T04:05:58.342Z,41.70
2022-09-28T04:06:58.131Z,39.10
2022-09-28T04:07:58.162Z,37.60
2022-09-28T04:08:58.102Z,40.10
2022-09-28T04:09:58.574Z,37.10
2022-09-28T04:10:58.551Z,36.90
2022-09-28T04:12:03.891Z,36.40
2022-09-28T04:12:58.683Z,38.50
2022-09-28T04:13:58.591Z,39.90
2022-09-28T04:14:58.550Z,40.00
2022-09-28T04:15:58.603Z,40.80
2022-09-28T04:16:58.010Z,41.20
2022-09-28T04:17:58.779Z,38.80
2022-09-28T04:18:58.370Z,40.00
2022-09-28T04:19:58.177Z,38.60
2022-09-28T04:20:58.383Z,37.80
2022-09-28T04:21:59.069Z,37.40
2022-09-28T04:22:58.800Z,36.80
2022-09-28T04:23:58.448Z,38.20
2022-09-28T04:24:58.669Z,38.90
2022-09-28T04:25:58.908Z,38.10
2022-09-28T04:26:58.809Z,41.50
2022-09-28T04:27:58.097Z,40.30
2022-09-28T04:29:01.593Z,39.40
2022-09-28T04:29:58.778Z,40.10
2022-09-28T04:30:58.942Z,35.00
2022-09-28T04:31:58.691Z,36.90
2022-09-28T04:32:57.916Z,42.80
2022-09-28T04:33:58.706Z,39.90
2022-09-28T04:34:58.703Z,39.00
2022-09-28T04:35:58.275Z,40.00
2022-09-28T04:36:58.125Z,39.50
2022-09-28T04:37:57.936Z,38.60
2022-09-28T04:38:57.886Z,38.70
2022-09-28T04:39:57.903Z,39.60
2022-09-28T04:40:57.965Z,45.30
2022-09-28T04:41:57.908Z,41.60
2022-09-28T04:42:57.914Z,42.40
2022-09-28T04:43:59.316Z,41.30
2022-09-28T04:44:58.134Z,43.70
2022-09-28T04:45:58.008Z,39.60
2022-09-28T04:47:00.686Z,40.50
2022-09-28T04:47:59.283Z,41.90
2022-09-28T04:48:58.183Z,41.60
2022-09-28T04:49:57.815Z,41.50
2022-09-28T04:50:57.813Z,42.60
2022-09-28T04:51:57.772Z,42.00
2022-09-28T04:52:57.793Z,41.40
2022-09-28T04:53:57.769Z,43.10
2022-09-28T04:54:58.602Z,47.10
2022-09-28T04:55:57.802Z,44.50
2022-09-28T04:56:57.821Z,46.10
2022-09-28T04:57:57.812Z,46.60
2022-09-28T04:58:57.882Z,43.90
2022-09-28T04:59:58.040Z,50.00
2022-09-28T05:00:58.123Z,47.00
2022-09-28T05:01:58.092Z,47.90
2022-09-28T05:02:57.830Z,49.30
2022-09-28T05:03:58.122Z,49.80
2022-09-28T05:04:58.270Z,47.10
2022-09-28T05:05:58.280Z,47.90
2022-09-28T05:06:58.291Z,52.20
2022-09-28T05:07:57.726Z,50.30
2022-09-28T05:08:58.359Z,52.90
2022-09-28T05:09:58.510Z,48.50
2022-09-28T05:10:57.888Z,53.50
2022-09-28T05:11:58.597Z,53.70
2022-09-28T05:12:57.742Z,53.60
2022-09-28T05:13:57.647Z,52.70
2022-09-28T05:14:58.114Z,54.60
2022-09-28T05:16:03.071Z,53.80
2022-09-28T05:16:57.700Z,50.30
2022-09-28T05:17:57.737Z,53.10
2022-09-28T05:18:57.622Z,62.80
2022-09-28T05:19:57.766Z,57.10
2022-09-28T05:20:57.594Z,59.30
2022-09-28T05:21:57.828Z,56.60
2022-09-28T05:22:57.679Z,56.60
2022-09-28T05:23:57.976Z,60.40
2022-09-28T05:24:57.975Z,63.00
2022-09-28T05:25:58.068Z,65.40
2022-09-28T05:26:58.075Z,60.00
2022-09-28T05:27:57.865Z,63.10
2022-09-28T05:28:58.215Z,66.90
2022-09-28T05:29:58.214Z,62.70
2022-09-28T05:30:58.035Z,68.70
2022-09-28T05:31:58.374Z,67.80
2022-09-28T05:32:58.363Z,71.10
2022-09-28T05:33:58.454Z,67.80
2022-09-28T05:34:57.632Z,69.70
2022-09-28T05:36:01.054Z,72.00
2022-09-28T05:36:57.480Z,67.20
2022-09-28T05:37:57.481Z,66.00
2022-09-28T05:38:57.543Z,65.80
2022-09-28T05:39:57.462Z,70.80
2022-09-28T05:40:57.498Z,70.00
2022-09-28T05:41:57.482Z,69.70
2022-09-28T05:42:57.481Z,71.90
2022-09-28T05:43:57.491Z,65.80
2022-09-28T05:44:57.491Z,66.60
2022-09-28T05:45:57.557Z,75.20
2022-09-28T05:46:57.512Z,66.80
2022-09-28T05:47:57.521Z,69.80
2022-09-28T05:48:57.521Z,67.20
2022-09-28T05:49:57.421Z,69.50
2022-09-28T05:50:57.409Z,65.90
2022-09-28T05:51:57.438Z,76.60
2022-09-28T05:52:57.432Z,62.70
2022-09-28T05:54:00.674Z,64.70
2022-09-28T05:54:57.452Z,64.80
2022-09-28T05:55:57.369Z,67.30
2022-09-28T05:56:57.580Z,66.40
2022-09-28T05:57:57.522Z,69.70
2022-09-28T05:58:57.669Z,71.60
2022-09-28T05:59:57.694Z,77.90
2022-09-28T06:00:57.717Z,70.40
2022-09-28T06:01:57.466Z,71.60
2022-09-28T06:02:57.488Z,67.00
2022-09-28T06:03:57.702Z,66.10
2022-09-28T06:04:57.708Z,70.10
2022-09-28T06:05:57.718Z,70.60
2022-09-28T06:06:57.347Z,65.70
2022-09-28T06:07:57.729Z,62.50
2022-09-28T06:08:57.543Z,70.30
2022-09-28T06:09:57.747Z,63.80
2022-09-28T06:10:57.297Z,60.70
2022-09-28T06:11:57.770Z,61.30
2022-09-28T06:12:57.556Z,61.10
2022-09-28T06:13:57.886Z,59.60
2022-09-28T06:14:57.897Z,59.70
2022-09-28T06:15:57.820Z,62.40
2022-09-28T06:16:57.616Z,67.10
2022-09-28T06:17:57.917Z,62.10
2022-09-28T06:18:57.597Z,65.60
2022-09-28T06:19:57.805Z,65.80
2022-09-28T06:20:57.831Z,58.50
2022-09-28T06:21:59.368Z,59.50
2022-09-28T06:22:57.164Z,60.90
2022-09-28T06:23:57.543Z,57.70
2022-09-28T06:24:57.223Z,59.50
2022-09-28T06:25:57.194Z,61.90
2022-09-28T06:26:57.153Z,58.20
2022-09-28T06:27:57.193Z,63.10
2022-09-28T06:28:57.169Z,64.40
2022-09-28T06:29:57.168Z,66.40
2022-09-28T06:30:57.212Z,66.20
2022-09-28T06:31:57.133Z,65.40
2022-09-28T06:32:57.287Z,59.60
2022-09-28T06:33:57.410Z,60.80
2022-09-28T06:34:57.420Z,62.70
2022-09-28T06:35:57.430Z,63.30
2022-09-28T06:36:57.132Z,55.10
2022-09-28T06:37:57.320Z,56.80
2022-09-28T06:38:57.547Z,58.10
2022-09-28T06:39:57.650Z,61.50
2022-09-28T06:40:58.569Z,60.90
2022-09-28T06:41:57.760Z,60.30
2022-09-28T06:42:57.150Z,64.20
2022-09-28T06:43:58.499Z,63.20
2022-09-28T06:44:57.021Z,62.30
2022-09-28T06:45:57.089Z,65.70
2022-09-28T06:46:57.009Z,59.90
2022-09-28T06:47:57.008Z,64.30
2022-09-28T06:48:57.029Z,55.50
2022-09-28T06:49:57.036Z,59.00
2022-09-28T06:50:57.048Z,57.40
2022-09-28T06:51:56.988Z,58.10
2022-09-28T06:52:57.080Z,57.30
2022-09-28T06:53:57.088Z,54.10
2022-09-28T06:54:57.025Z,58.80
2022-09-28T06:55:57.113Z,57.70
2022-09-28T06:56:56.966Z,56.90
2022-09-28T06:57:57.143Z,55.10
2022-09-28T06:58:57.155Z,59.40
2022-09-28T06:59:57.167Z,61.00
2022-09-28T07:00:57.212Z,54.90
2022-09-28T07:01:57.103Z,57.00
2022-09-28T07:02:56.905Z,52.20
2022-09-28T07:03:56.904Z,53.10
2022-09-28T07:04:56.913Z,54.60
2022-09-28T07:05:56.917Z,54.70
2022-09-28T07:06:56.903Z,53.70
2022-09-28T07:07:56.915Z,53.20
2022-09-28T07:09:10.168Z,48.70
2022-09-28T07:09:56.943Z,52.40
2022-09-28T07:10:56.929Z,52.10
2022-09-28T07:11:56.872Z,49.30
2022-09-28T07:12:56.942Z,54.00
2022-09-28T07:13:56.955Z,46.30
2022-09-28T07:14:56.831Z,48.00
2022-09-28T07:15:56.963Z,48.80
2022-09-28T07:17:12.568Z,53.50
2022-09-28T07:18:02.185Z,48.10
2022-09-28T07:18:56.843Z,49.00
2022-09-28T07:19:57.127Z,46.50
2022-09-28T07:20:56.822Z,46.80
2022-09-28T07:22:03.624Z,45.20
2022-09-28T07:22:59.181Z,40.90
2022-09-28T07:23:56.771Z,43.20
2022-09-28T07:24:56.770Z,36.40
2022-09-28T07:25:57.082Z,43.10
2022-09-28T07:26:56.779Z,44.80
2022-09-28T07:27:56.858Z,44.30
2022-09-28T07:28:56.881Z,42.70
2022-09-28T07:29:56.887Z,41.50
2022-09-28T07:30:57.171Z,39.20
2022-09-28T07:31:57.235Z,39.10
2022-09-28T07:32:57.281Z,35.30
2022-09-28T07:33:57.288Z,35.30
2022-09-28T07:34:58.930Z,36.50
2022-09-28T07:35:57.297Z,38.50
2022-09-28T07:36:56.989Z,34.10
2022-09-28T07:37:58.212Z,35.10
2022-09-28T07:38:57.338Z,35.50
2022-09-28T07:39:56.678Z,39.00
2022-09-28T07:40:57.003Z,37.10
2022-09-28T07:41:59.696Z,32.80
2022-09-28T07:42:56.685Z,35.80
2022-09-28T07:43:56.732Z,34.90
2022-09-28T07:44:56.677Z,35.00
2022-09-28T07:45:56.857Z,36.40
2022-09-28T07:46:56.625Z,35.00
2022-09-28T07:47:56.617Z,35.00
2022-09-28T07:48:56.667Z,33.30
2022-09-28T07:49:56.786Z,36.90
2022-09-28T07:50:56.788Z,31.50
2022-09-28T07:51:56.605Z,33.30
2022-09-28T07:52:56.617Z,37.40
2022-09-28T07:53:56.814Z,34.30
2022-09-28T07:54:56.824Z,31.50
2022-09-28T07:55:56.828Z,33.50
2022-09-28T07:56:56.831Z,37.80
2022-09-28T07:57:56.543Z,33.50
2022-09-28T07:58:56.848Z,34.70
2022-09-28T07:59:56.859Z,33.30
2022-09-28T08:00:56.913Z,35.40
2022-09-28T08:01:56.925Z,32.80
2022-09-28T08:02:57.093Z,33.50
2022-09-28T08:03:57.433Z,35.30
2022-09-28T08:04:56.492Z,31.10
2022-09-28T08:05:57.082Z,33.20
2022-09-28T08:06:56.712Z,33.30
2022-09-28T08:07:56.481Z,33.10
2022-09-28T08:08:56.490Z,34.40
2022-09-28T08:09:57.003Z,32.80
2022-09-28T08:11:57.012Z,32.20
2022-09-28T08:12:59.294Z,32.80
2022-09-28T08:13:56.449Z,35.70
2022-09-28T08:14:56.448Z,34.00
2022-09-28T08:15:57.171Z,34.00
2022-09-28T08:16:56.450Z,32.20
2022-09-28T08:18:00.460Z,34.40
2022-09-28T08:18:56.418Z,33.60
2022-09-28T08:19:56.403Z,33.30
2022-09-28T08:20:56.590Z,32.90
2022-09-28T08:21:56.426Z,33.00
2022-09-28T08:22:56.379Z,34.90
2022-09-28T08:23:56.378Z,32.90
2022-09-28T08:24:56.369Z,35.90
2022-09-28T08:25:56.529Z,34.70
2022-09-28T08:26:56.506Z,31.60
2022-09-28T08:27:56.428Z,34.90
2022-09-28T08:28:56.438Z,33.80
2022-09-28T08:29:56.657Z,31.90
2022-09-28T08:30:56.390Z,32.30
2022-09-28T08:32:01.266Z,33.00
2022-09-28T08:32:56.547Z,32.20
2022-09-28T08:33:56.555Z,34.80
2022-09-28T08:34:56.684Z,36.70
2022-09-28T08:35:56.363Z,33.60
2022-09-28T08:36:56.696Z,31.90
2022-09-28T08:37:56.316Z,32.30
2022-09-28T08:38:56.306Z,35.20
2022-09-28T08:39:56.317Z,34.90
2022-09-28T08:40:56.342Z,32.10
2022-09-28T08:41:56.266Z,31.90
2022-09-28T08:42:56.404Z,31.90
2022-09-28T08:43:56.416Z,32.90
2022-09-28T08:44:56.625Z,33.50
2022-09-28T08:45:56.410Z,30.70
2022-09-28T08:46:56.227Z,30.50
2022-09-28T08:47:56.774Z,29.50
2022-09-28T08:49:20.752Z,26.80
2022-09-28T08:49:56.789Z,24.80
2022-09-28T08:50:56.794Z,22.90
2022-09-28T08:51:56.798Z,26.00
2022-09-28T08:52:56.193Z,22.80
2022-09-28T08:53:56.192Z,22.90
2022-09-28T08:54:56.215Z,22.70
2022-09-28T08:55:56.205Z,24.40
2022-09-28T08:56:56.222Z,19.90
2022-09-28T08:57:56.291Z,19.90
2022-09-28T08:58:56.300Z,19.90
2022-09-28T08:59:56.440Z,19.20
2022-09-28T09:00:56.494Z,19.90
2022-09-28T09:01:57.935Z,19.80
2022-09-28T09:02:56.567Z,16.90
2022-09-28T09:03:56.538Z,16.60
2022-09-28T09:04:56.681Z,17.30
2022-09-28T09:05:56.692Z,18.60
2022-09-28T09:06:56.198Z,17.70
2022-09-28T09:07:56.125Z,17.90
2022-09-28T09:08:56.929Z,18.00
2022-09-28T09:09:56.080Z,18.20
2022-09-28T09:10:56.311Z,18.70
2022-09-28T09:11:56.060Z,21.80
2022-09-28T09:12:56.161Z,21.70
2022-09-28T09:13:56.128Z,18.30
2022-09-28T09:14:56.278Z,20.30
2022-09-28T09:15:57.167Z,19.40
2022-09-28T09:17:00.346Z,20.20
2022-09-28T09:17:56.978Z,19.00
2022-09-28T09:18:56.898Z,19.20
2022-09-28T09:19:57.049Z,22.10
2022-09-28T09:20:56.949Z,21.10
2022-09-28T09:21:55.978Z,19.70
2022-09-28T09:22:55.988Z,20.10
2022-09-28T09:23:56.919Z,20.40
2022-09-28T09:24:55.967Z,21.70
2022-09-28T09:25:56.617Z,23.30
2022-09-28T09:26:56.888Z,23.00
2022-09-28T09:27:56.787Z,22.20
2022-09-28T09:28:56.427Z,22.80
2022-09-28T09:29:56.857Z,24.20
2022-09-28T09:30:56.562Z,25.80
2022-09-28T09:31:55.927Z,23.70
2022-09-28T09:32:56.051Z,22.50
2022-09-28T09:33:56.055Z,23.70
2022-09-28T09:34:56.065Z,25.50
2022-09-28T09:35:56.076Z,22.30
2022-09-28T09:36:55.886Z,22.00
2022-09-28T09:37:58.519Z,22.70
2022-09-28T09:38:56.095Z,21.80
2022-09-28T09:39:56.104Z,23.20
2022-09-28T09:40:56.261Z,21.80
2022-09-28T09:41:55.854Z,20.90
2022-09-28T09:42:56.126Z,21.90
2022-09-28T09:43:55.843Z,22.20
2022-09-28T09:44:56.133Z,23.90
2022-09-28T09:45:56.581Z,22.10
2022-09-28T09:46:55.823Z,21.20
2022-09-28T09:47:55.818Z,21.10
2022-09-28T09:48:56.373Z,22.80
2022-09-28T09:49:56.372Z,22.20
2022-09-28T09:50:55.813Z,20.80
2022-09-28T09:51:55.790Z,21.20
2022-09-28T09:52:55.814Z,22.00
2022-09-28T09:53:55.774Z,21.30
2022-09-28T09:54:55.774Z,22.60
2022-09-28T09:55:55.801Z,21.90
2022-09-28T09:56:55.752Z,21.60
2022-09-28T09:57:55.813Z,22.90
2022-09-28T09:58:55.742Z,22.70
2022-09-28T09:59:55.729Z,23.30
2022-09-28T10:00:55.853Z,23.80
2022-09-28T10:01:55.713Z,23.00
2022-09-28T10:02:55.781Z,27.10
2022-09-28T10:03:55.850Z,25.00
2022-09-28T10:04:56.270Z,24.90
2022-09-28T10:05:55.869Z,25.30
2022-09-28T10:06:55.700Z,27.30
2022-09-28T10:07:55.679Z,25.70
2022-09-28T10:08:55.679Z,27.80
2022-09-28T10:09:55.673Z,27.00
2022-09-28T10:10:55.759Z,25.90
2022-09-28T10:11:55.649Z,26.80
2022-09-28T10:12:55.651Z,27.70
2022-09-28T10:13:55.651Z,25.00
2022-09-28T10:14:55.628Z,28.90
2022-09-28T10:15:55.987Z,27.40
2022-09-28T10:16:55.689Z,27.40
2022-09-28T10:17:55.609Z,27.70
2022-09-28T10:18:55.610Z,32.00
2022-09-28T10:19:55.598Z,29.00
2022-09-28T10:20:55.623Z,29.40
2022-09-28T10:21:56.178Z,26.80
2022-09-28T10:22:56.186Z,29.10
2022-09-28T10:23:55.575Z,28.90
2022-09-28T10:24:56.197Z,31.30
2022-09-28T10:25:56.247Z,29.10
2022-09-28T10:26:56.218Z,29.40
2022-09-28T10:27:55.535Z,25.80
2022-09-28T10:28:55.537Z,28.80
2022-09-28T10:29:55.615Z,30.00
2022-09-28T10:30:56.458Z,30.40
2022-09-28T10:31:55.537Z,30.90
2022-09-28T10:32:55.945Z,30.30
2022-09-28T10:33:55.506Z,29.20
2022-09-28T10:34:55.514Z,28.80
2022-09-28T10:35:55.495Z,28.30
2022-09-28T10:36:55.687Z,28.20
2022-09-28T10:37:55.715Z,26.00
2022-09-28T10:38:55.722Z,26.30
2022-09-28T10:39:55.477Z,29.60
2022-09-28T10:40:56.274Z,29.30
2022-09-28T10:41:55.519Z,29.20
2022-09-28T10:42:55.506Z,29.20
2022-09-28T10:43:58.008Z,27.80
2022-09-28T10:44:56.896Z,25.60
2022-09-28T10:45:55.579Z,26.40
2022-09-28T10:46:55.533Z,26.10
2022-09-28T10:47:55.543Z,25.50
2022-09-28T10:48:55.542Z,28.20
2022-09-28T10:49:55.394Z,27.50
2022-09-28T10:50:55.763Z,27.60
2022-09-28T10:51:55.392Z,27.20
2022-09-28T10:52:55.382Z,26.90
2022-09-28T10:53:55.782Z,27.20
2022-09-28T10:54:55.370Z,22.90
2022-09-28T10:55:55.391Z,22.30
2022-09-28T10:56:56.014Z,23.40
2022-09-28T10:57:55.403Z,22.40
2022-09-28T10:58:55.342Z,23.20
2022-09-28T10:59:55.331Z,23.50
2022-09-28T11:00:55.451Z,24.60
2022-09-28T11:01:55.421Z,22.10
2022-09-28T11:02:55.347Z,24.60
2022-09-28T11:03:55.301Z,20.90
2022-09-28T11:04:55.350Z,18.60
2022-09-28T11:05:55.388Z,19.70
2022-09-28T11:06:55.519Z,19.80
2022-09-28T11:07:55.279Z,18.60
2022-09-28T11:08:55.382Z,18.70
2022-09-28T11:09:55.260Z,20.50
2022-09-28T11:10:55.410Z,22.20
2022-09-28T11:11:55.279Z,19.20
2022-09-28T11:12:55.239Z,20.10
2022-09-28T11:13:55.237Z,20.10
2022-09-28T11:14:55.229Z,18.90
2022-09-28T11:15:55.537Z,22.10
2022-09-28T11:16:55.263Z,21.40
2022-09-28T11:17:55.208Z,21.80
2022-09-28T11:18:55.508Z,24.70
2022-09-28T11:19:55.199Z,24.50
2022-09-28T11:20:55.189Z,24.80
2022-09-28T11:21:55.207Z,25.80
2022-09-28T11:22:55.194Z,22.60
2022-09-28T11:23:55.177Z,21.10
2022-09-28T11:24:55.171Z,21.40
2022-09-28T11:25:55.407Z,21.40
2022-09-28T11:26:55.167Z,20.20
2022-09-28T11:27:55.150Z,18.90
2022-09-28T11:28:55.150Z,19.90
2022-09-28T11:29:55.137Z,17.00
2022-09-28T11:30:55.152Z,18.50
2022-09-28T11:31:55.146Z,19.10
2022-09-28T11:32:55.110Z,19.60
2022-09-28T11:33:55.107Z,19.80
2022-09-28T11:34:59.489Z,19.30
2022-09-28T11:35:55.487Z,17.00
2022-09-28T11:36:58.422Z,19.10
2022-09-28T11:37:55.066Z,18.50
2022-09-28T11:38:55.075Z,19.40
2022-09-28T11:39:55.064Z,20.70
2022-09-28T11:40:55.587Z,17.60
2022-09-28T11:41:55.494Z,19.10
2022-09-28T11:42:55.764Z,19.10
2022-09-28T11:43:55.558Z,17.40
2022-09-28T11:44:55.033Z,20.30
2022-09-28T11:45:55.072Z,19.00
2022-09-28T11:46:55.146Z,18.50
2022-09-28T11:47:55.135Z,18.70
2022-09-28T11:48:55.542Z,19.00
2022-09-28T11:49:55.248Z,17.40
2022-09-28T11:50:55.564Z,20.70
2022-09-28T11:51:54.992Z,18.10
2022-09-28T11:52:54.992Z,18.20
2022-09-28T11:53:54.970Z,20.40
2022-09-28T11:54:55.373Z,18.40
2022-09-28T11:55:54.984Z,19.00
2022-09-28T11:56:54.984Z,20.80
2022-09-28T11:57:54.972Z,19.20
2022-09-28T11:58:55.694Z,18.00
2022-09-28T11:59:55.065Z,17.20
2022-09-28T12:00:55.022Z,17.20
2022-09-28T12:01:55.023Z,16.90
2022-09-28T12:02:55.101Z,14.30
2022-09-28T12:03:54.901Z,18.50
2022-09-28T12:04:54.903Z,16.30
2022-09-28T12:05:55.271Z,16.80
2022-09-28T12:06:55.004Z,15.40
2022-09-28T12:07:55.066Z,16.80
2022-09-28T12:08:54.921Z,15.10
2022-09-28T12:09:55.071Z,16.80
2022-09-28T12:10:55.191Z,16.70
2022-09-28T12:11:55.062Z,13.90
2022-09-28T12:12:55.301Z,14.00
2022-09-28T12:13:55.101Z,17.10
2022-09-28T12:14:55.113Z,15.80
2022-09-28T12:17:10.643Z,17.10
2022-09-28T12:17:55.424Z,22.00
2022-09-28T12:18:54.841Z,21.80
2022-09-28T12:19:55.365Z,26.10
2022-09-28T12:20:55.349Z,27.50
2022-09-28T12:21:55.365Z,17.70
2022-09-28T12:22:55.360Z,20.20
2022-09-28T12:23:55.369Z,16.80
2022-09-28T12:24:54.860Z,18.80
2022-09-28T12:25:55.389Z,21.70
2022-09-28T12:26:55.420Z,20.10
2022-09-28T12:27:54.793Z,19.20
2022-09-28T12:28:54.800Z,18.60
2022-09-28T12:29:54.730Z,17.00
2022-09-28T12:30:54.902Z,14.60
2022-09-28T12:31:56.278Z,15.60
2022-09-28T12:32:55.038Z,11.60
2022-09-28T12:33:54.729Z,12.90
2022-09-28T12:34:54.957Z,14.10
2022-09-28T12:35:54.851Z,13.90
2022-09-28T12:36:54.766Z,12.20
2022-09-28T12:37:54.724Z,11.30
2022-09-28T12:39:17.516Z,12.00
2022-09-28T12:39:58.082Z,13.30
2022-09-28T12:40:54.926Z,15.90
2022-09-28T12:41:54.887Z,15.50
2022-09-28T12:42:54.877Z,16.20
2022-09-28T12:43:54.898Z,16.30
2022-09-28T12:44:59.144Z,17.10
2022-09-28T12:46:11.052Z,15.80
2022-09-28T12:46:55.025Z,19.30
2022-09-28T12:47:55.116Z,16.20
2022-09-28T12:49:27.245Z,17.50
2022-09-28T12:50:57.594Z,17.10
2022-09-28T12:51:55.256Z,15.30
2022-09-28T12:52:58.108Z,14.70
2022-09-28T12:53:55.372Z,16.50
2022-09-28T12:54:55.371Z,17.40
2022-09-28T12:55:54.556Z,16.10
2022-09-28T12:56:55.415Z,15.60
2022-09-28T12:57:55.404Z,16.70
2022-09-28T12:58:54.584Z,18.10